Time;durP1;ratioP1;P1;durP2;ratioP2;P2;SDS_P1;SDS_P2;PMS_P1;PMS_P2;Temp;Humidity;BMP_temperature;BMP_pressure;BME280_temperature;BME280_humidity;BME280_pressure;Samples;Min_cycle;Max_cycle;Signal;HPM_P1;HPM_P2
2023/10/11 00:01:07;;;;;;;12.20;7.83;;;;;;;;;;6248656;28;20049;-78
2023/10/11 00:04:23;;;;;;;14.25;7.97;;;;;;;;;;6250693;28;20049;-78
2023/10/11 00:07:25;;;;;;;13.70;7.90;;;;;;;;;;6252605;28;20049;-78
2023/10/11 00:10:28;;;;;;;11.25;6.75;;;;;;;;;;6250323;28;20045;-78
2023/10/11 00:13:32;;;;;;;16.17;7.47;;;;;;;;;;6250055;28;20350;-79
2023/10/11 00:16:35;;;;;;;13.65;7.28;;;;;;;;;;6250005;28;20057;-79
2023/10/11 00:19:39;;;;;;;12.80;7.27;;;;;;;;;;6252729;28;20042;-84
2023/10/11 00:22:40;;;;;;;12.18;7.03;;;;;;;;;;6249438;28;20061;-84
2023/10/11 00:25:44;;;;;;;16.20;8.30;;;;;;;;;;6247859;28;20074;-85
2023/10/11 00:28:45;;;;;;;10.40;7.63;;;;;;;;;;6245831;28;20113;-85
2023/10/11 00:31:51;;;;;;;13.02;7.47;;;;;;;;;;6254003;28;20154;-82
2023/10/11 00:34:55;;;;;;;12.23;7.65;;;;;;;;;;6254164;28;20052;-82
2023/10/11 00:37:59;;;;;;;10.77;7.05;;;;;;;;;;6224257;28;20369;-86
2023/10/11 00:41:07;;;;;;;13.73;7.15;;;;;;;;;;6229716;28;20061;-82
2023/10/11 00:44:08;;;;;;;12.57;7.75;;;;;;;;;;6225077;28;20057;-84
2023/10/11 00:47:10;;;;;;;15.77;7.63;;;;;;;;;;6227226;28;20054;-86
2023/10/11 00:50:15;;;;;;;12.60;7.20;;;;;;;;;;6227892;28;20041;-86
2023/10/11 00:53:18;;;;;;;11.73;7.43;;;;;;;;;;6227299;28;20049;-85
2023/10/11 00:56:20;;;;;;;13.82;8.07;;;;;;;;;;6220750;28;20116;-86
2023/10/11 00:59:23;;;;;;;12.15;7.43;;;;;;;;;;6225878;28;20062;-84
2023/10/11 01:02:26;;;;;;;14.13;8.10;;;;;;;;;;6218193;28;20113;-84
2023/10/11 01:05:32;;;;;;;;;;;;;;;;;;6231880;28;20068;-74
2023/10/11 01:08:39;;;;;;;15.20;7.65;;;;;;;;;;6231107;28;19917;-85
2023/10/11 01:11:41;;;;;;;13.93;8.15;;;;;;;;;;6226942;28;20105;-85
2023/10/11 01:14:56;;;;;;;16.20;7.88;;;;;;;;;;6227211;28;20079;-85
2023/10/11 01:17:58;;;;;;;13.95;8.25;;;;;;;;;;6227247;28;20092;-84
2023/10/11 01:21:01;;;;;;;13.18;7.55;;;;;;;;;;6222117;28;20041;-86
2023/10/11 01:24:06;;;;;;;17.10;8.85;;;;;;;;;;6224085;28;20054;-84
2023/10/11 01:27:07;;;;;;;16.08;9.52;;;;;;;;;;6229206;28;20065;-86
2023/10/11 01:30:09;;;;;;;14.43;9.15;;;;;;;;;;6228348;28;20059;-86
2023/10/11 01:33:11;;;;;;;17.25;9.07;;;;;;;;;;6224886;28;20045;-84
2023/10/11 01:36:18;;;;;;;14.90;8.77;;;;;;;;;;6229876;28;20104;-83
2023/10/11 01:39:21;;;;;;;17.25;9.02;;;;;;;;;;6222947;28;20073;-84
2023/10/11 01:42:23;;;;;;;14.05;8.63;;;;;;;;;;6223273;28;20064;-78
2023/10/11 01:45:24;;;;;;;15.45;9.25;;;;;;;;;;6226374;28;20212;-84
2023/10/11 01:48:26;;;;;;;17.98;9.30;;;;;;;;;;6225218;28;20392;-86
2023/10/11 01:51:29;;;;;;;18.42;9.50;;;;;;;;;;6224625;28;20050;-85
2023/10/11 01:54:31;;;;;;;19.25;9.90;;;;;;;;;;6231954;28;20060;-85
2023/10/11 01:57:34;;;;;;;13.80;9.25;;;;;;;;;;6222751;28;20113;-79
2023/10/11 02:00:35;;;;;;;20.17;10.07;;;;;;;;;;6221032;28;20045;-84
2023/10/11 02:03:39;;;;;;;16.50;9.50;;;;;;;;;;6232719;28;20086;-85
2023/10/11 02:06:43;;;;;;;17.13;9.80;;;;;;;;;;6229097;28;20058;-85
2023/10/11 02:09:44;;;;;;;13.07;9.00;;;;;;;;;;6225526;28;20254;-83
2023/10/11 02:12:46;;;;;;;14.90;9.90;;;;;;;;;;6221675;28;20041;-85
2023/10/11 02:15:49;;;;;;;15.82;9.88;;;;;;;;;;6221730;28;20242;-85
2023/10/11 02:18:58;;;;;;;19.85;10.00;;;;;;;;;;6218106;28;20363;-85
2023/10/11 02:22:01;;;;;;;18.33;10.52;;;;;;;;;;6219818;28;20052;-85
2023/10/11 02:25:04;;;;;;;20.90;11.73;;;;;;;;;;6229326;28;20046;-85
2023/10/11 02:28:09;;;;;;;24.58;11.30;;;;;;;;;;6225701;28;20054;-85
2023/10/11 02:31:12;;;;;;;17.70;10.63;;;;;;;;;;6227729;28;20045;-82
2023/10/11 02:34:14;;;;;;;21.75;11.40;;;;;;;;;;6230942;28;20054;-83
2023/10/11 02:37:21;;;;;;;20.80;10.80;;;;;;;;;;6225079;28;20054;-82
2023/10/11 02:40:24;;;;;;;21.77;11.90;;;;;;;;;;6229451;28;20166;-84
2023/10/11 02:43:26;;;;;;;20.40;12.25;;;;;;;;;;6231638;28;20058;-84
2023/10/11 02:46:28;;;;;;;18.88;12.05;;;;;;;;;;6234464;28;20053;-81
2023/10/11 02:49:31;;;;;;;24.92;14.13;;;;;;;;;;6228383;28;20118;-85
2023/10/11 02:52:36;;;;;;;26.27;13.70;;;;;;;;;;6233075;28;20053;-85
2023/10/11 02:55:39;;;;;;;27.65;13.85;;;;;;;;;;6226159;28;20050;-86
2023/10/11 02:58:40;;;;;;;27.35;13.55;;;;;;;;;;6227724;28;20084;-87
2023/10/11 03:01:42;;;;;;;29.20;13.05;;;;;;;;;;6227906;28;20057;-81
2023/10/11 03:04:44;;;;;;;28.33;15.10;;;;;;;;;;6235323;28;20040;-84
2023/10/11 03:07:47;;;;;;;26.70;14.98;;;;;;;;;;6232110;28;20054;-82
2023/10/11 03:10:54;;;;;;;27.27;16.25;;;;;;;;;;6250864;28;20057;-85
2023/10/11 03:13:56;;;;;;;31.17;18.23;;;;;;;;;;6253139;28;20277;-86
2023/10/11 03:17:05;;;;;;;35.42;17.63;;;;;;;;;;6223511;28;20057;-84
2023/10/11 03:20:09;;;;;;;31.15;17.58;;;;;;;;;;6227254;28;20084;-81
2023/10/11 03:23:12;;;;;;;;;;;;;;;;;;6232732;28;20053;-84
2023/10/11 03:26:19;;;;;;;36.50;19.33;;;;;;;;;;6230537;28;19917;-84
2023/10/11 03:29:21;;;;;;;43.50;19.95;;;;;;;;;;6231233;28;20053;-84
2023/10/11 03:32:25;;;;;;;32.47;19.83;;;;;;;;;;6231681;28;20046;-79
2023/10/11 03:35:26;;;;;;;;;;;;;;;;;;6228123;28;20132;-84
2023/10/11 03:38:33;;;;;;;44.10;19.85;;;;;;;;;;6225890;28;19924;-81
2023/10/11 03:41:35;;;;;;;33.50;20.17;;;;;;;;;;6226344;28;20061;-85
2023/10/11 03:44:40;;;;;;;37.50;20.02;;;;;;;;;;6228517;28;20055;-82
2023/10/11 03:47:43;;;;;;;33.22;19.25;;;;;;;;;;6228004;28;20053;-80
2023/10/11 03:50:48;;;;;;;35.72;19.98;;;;;;;;;;6231099;28;20342;-83
2023/10/11 03:53:52;;;;;;;32.72;18.63;;;;;;;;;;6226963;28;20057;-79
2023/10/11 03:56:55;;;;;;;34.28;18.40;;;;;;;;;;6227756;28;20072;-85
2023/10/11 03:59:59;;;;;;;36.53;19.52;;;;;;;;;;6223415;28;20089;-86
2023/10/11 04:03:05;;;;;;;34.13;19.52;;;;;;;;;;6230995;28;20049;-85
2023/10/11 04:06:13;;;;;;;37.63;19.88;;;;;;;;;;6230504;28;20053;-85
2023/10/11 04:09:31;;;;;;;36.42;20.00;;;;;;;;;;6222448;28;20397;-86
2023/10/11 04:12:36;;;;;;;35.30;19.77;;;;;;;;;;6222865;28;20058;-85
2023/10/11 04:15:40;;;;;;;37.85;19.25;;;;;;;;;;6236358;28;20052;-83
2023/10/11 04:18:43;;;;;;;34.20;18.85;;;;;;;;;;6245576;28;20054;-83
2023/10/11 04:21:55;;;;;;;39.28;20.60;;;;;;;;;;6240775;28;20349;-79
2023/10/11 04:25:06;;;;;;;36.30;19.70;;;;;;;;;;6235087;28;20042;-85
2023/10/11 04:28:12;;;;;;;33.60;20.35;;;;;;;;;;6255348;28;20053;-81
2023/10/11 04:31:28;;;;;;;36.88;18.70;;;;;;;;;;6248687;28;20049;-84
2023/10/11 04:34:32;;;;;;;37.47;20.02;;;;;;;;;;6248275;28;20068;-85
2023/10/11 04:37:43;;;;;;;;;;;;;;;;;;6254337;28;20088;-85
2023/10/11 04:40:51;;;;;;;34.20;19.20;;;;;;;;;;6251748;28;19948;-85
2023/10/11 04:44:04;;;;;;;38.92;18.65;;;;;;;;;;6241118;28;20057;-86
2023/10/11 04:47:06;;;;;;;36.35;19.75;;;;;;;;;;6226224;28;20049;-84
2023/10/11 04:50:11;;;;;;;41.67;19.30;;;;;;;;;;6238145;28;20049;-83
2023/10/11 04:53:17;;;;;;;32.53;19.40;;;;;;;;;;6244892;28;20088;-85
2023/10/11 04:59:40;;;;;;;40.58;19.38;;;;;;;;;;6256488;28;20081;-79
2023/10/11 05:02:44;;;;;;;38.38;19.40;;;;;;;;;;6251261;28;20060;-75
2023/10/11 05:05:58;;;;;;;37.65;19.60;;;;;;;;;;6252979;28;20116;-78
2023/10/11 05:09:14;;;;;;;36.03;18.88;;;;;;;;;;6235979;28;20049;-76
2023/10/11 05:12:20;;;;;;;43.22;20.13;;;;;;;;;;6246333;28;20229;-78
2023/10/11 05:15:29;;;;;;;36.03;18.98;;;;;;;;;;6253890;28;20060;-78
2023/10/11 05:18:31;;;;;;;40.67;20.80;;;;;;;;;;6252403;28;20069;-79
2023/10/11 05:21:38;;;;;;;35.38;20.83;;;;;;;;;;6253754;28;20073;-77
2023/10/11 05:25:12;;;;;;;40.38;21.02;;;;;;;;;;6252960;28;20333;-77
2023/10/11 05:31:44;;;;;;;38.55;22.92;;;;;;;;;;6239780;28;20054;-78
2023/10/11 05:34:51;;;;;;;36.42;20.60;;;;;;;;;;6250912;28;20060;-81
2023/10/11 05:51:12;;;;;;;40.15;22.75;;;;;;;;;;6231892;28;20046;-78
2023/10/11 05:54:15;;;;;;;50.92;22.60;;;;;;;;;;6226835;28;20064;-80
2023/10/11 05:57:19;;;;;;;45.08;23.55;;;;;;;;;;6224161;28;20045;-79
2023/10/11 06:00:25;;;;;;;45.60;23.67;;;;;;;;;;6230585;28;20219;-80
2023/10/11 06:03:29;;;;;;;43.80;23.55;;;;;;;;;;6226332;28;20057;-79
2023/10/11 06:06:38;;;;;;;45.88;25.75;;;;;;;;;;6226332;28;20057;-79
2023/10/11 06:09:43;;;;;;;46.72;24.95;;;;;;;;;;6227618;28;20438;-79
2023/10/11 06:12:45;;;;;;;56.83;25.23;;;;;;;;;;6226035;28;20271;-78
2023/10/11 06:15:58;;;;;;;48.00;24.58;;;;;;;;;;6240191;28;20065;-78
2023/10/11 06:19:16;;;;;;;48.78;25.00;;;;;;;;;;6253263;28;20421;-79
2023/10/11 06:22:17;;;;;;;45.30;25.38;;;;;;;;;;6255357;28;20069;-78
2023/10/11 06:25:23;;;;;;;46.30;26.45;;;;;;;;;;6253148;28;20088;-78
2023/10/11 06:28:30;;;;;;;53.83;27.58;;;;;;;;;;6245928;28;20088;-78
2023/10/11 06:31:39;;;;;;;59.05;28.08;;;;;;;;;;6252855;28;20057;-78
2023/10/11 06:34:45;;;;;;;55.90;28.15;;;;;;;;;;6257349;28;20148;-78
2023/10/11 06:37:52;;;;;;;49.20;27.52;;;;;;;;;;6257208;28;20053;-79
2023/10/11 06:41:36;;;;;;;54.80;29.00;;;;;;;;;;6254201;28;20237;-79
2023/10/11 06:44:18;;;;;;;52.05;28.48;;;;;;;;;;6228526;28;20124;-76
2023/10/11 06:47:22;;;;;;;57.88;29.08;;;;;;;;;;6239561;28;20226;-78
2023/10/11 06:50:24;;;;;;;54.05;29.75;;;;;;;;;;6227876;28;20073;-79
2023/10/11 06:53:26;;;;;;;57.10;29.52;;;;;;;;;;6245700;28;20053;-79
2023/10/11 06:56:28;;;;;;;60.15;29.52;;;;;;;;;;6244201;28;20068;-79
2023/10/11 06:59:32;;;;;;;53.22;29.30;;;;;;;;;;6232240;28;20377;-78
2023/10/11 07:02:35;;;;;;;52.97;28.92;;;;;;;;;;6227209;28;20054;-79
2023/10/11 07:05:40;;;;;;;51.67;29.13;;;;;;;;;;6223634;28;20064;-79
2023/10/11 07:08:50;;;;;;;57.10;31.30;;;;;;;;;;6231433;28;20052;-78
2023/10/11 07:12:18;;;;;;;57.60;30.17;;;;;;;;;;6252540;28;20048;-78
2023/10/11 07:15:14;;;;;;;55.05;29.63;;;;;;;;;;6252300;28;20064;-78
2023/10/11 07:18:24;;;;;;;59.08;30.38;;;;;;;;;;6253073;28;20120;-78
2023/10/11 07:21:48;;;;;;;58.25;31.05;;;;;;;;;;6256376;28;20045;-75
2023/10/11 07:24:55;;;;;;;63.15;34.28;;;;;;;;;;6247871;28;20109;-78
2023/10/11 07:28:02;;;;;;;64.70;32.90;;;;;;;;;;6249498;28;20048;-78
2023/10/11 07:31:04;;;;;;;61.95;33.33;;;;;;;;;;6254414;28;20062;-79
2023/10/11 07:34:09;;;;;;;61.35;34.13;;;;;;;;;;6249898;28;20046;-77
2023/10/11 07:37:12;;;;;;;64.43;36.15;;;;;;;;;;6228458;28;20046;-79
2023/10/11 07:40:20;;;;;;;66.97;33.92;;;;;;;;;;6228124;28;20054;-78
2023/10/11 07:43:25;;;;;;;66.10;36.00;;;;;;;;;;6226191;28;20323;-79
2023/10/11 07:46:28;;;;;;;65.30;35.55;;;;;;;;;;6223875;28;20096;-78
2023/10/11 07:49:38;;;;;;;67.40;34.70;;;;;;;;;;6233209;28;20057;-77
2023/10/11 07:52:40;;;;;;;71.82;33.47;;;;;;;;;;6231483;28;20100;-78
2023/10/11 07:55:45;;;;;;;59.10;32.25;;;;;;;;;;6231303;28;20334;-77
2023/10/11 07:58:47;;;;;;;59.03;32.13;;;;;;;;;;6234007;28;20166;-77
2023/10/11 08:01:53;;;;;;;57.50;32.77;;;;;;;;;;6227691;28;20093;-78
2023/10/11 08:04:58;;;;;;;61.38;31.17;;;;;;;;;;6221985;28;20453;-78
2023/10/11 08:07:59;;;;;;;64.15;33.33;;;;;;;;;;6229806;28;20046;-78
2023/10/11 08:11:06;;;;;;;58.70;34.78;;;;;;;;;;6230774;28;20045;-78
2023/10/11 08:14:14;;;;;;;46.47;26.98;;;;;;;;;;6221373;28;20235;-78
2023/10/11 08:17:19;;;;;;;56.15;27.63;;;;;;;;;;6224784;28;20366;-78
2023/10/11 08:20:28;;;;;;;52.28;28.42;;;;;;;;;;6228503;28;20045;-78
2023/10/11 08:23:29;;;;;;;55.50;27.52;;;;;;;;;;6222586;28;20050;-77
2023/10/11 08:26:42;;;;;;;43.55;24.17;;;;;;;;;;6228062;28;20089;-78
2023/10/11 08:29:43;;;;;;;43.38;25.27;;;;;;;;;;6230548;28;20194;-78
2023/10/11 08:32:47;;;;;;;52.08;27.48;;;;;;;;;;6237466;28;20045;-78
2023/10/11 08:35:53;;;;;;;47.50;26.17;;;;;;;;;;6228413;28;20049;-76
2023/10/11 08:38:55;;;;;;;49.72;27.90;;;;;;;;;;6230193;28;20095;-74
2023/10/11 08:41:58;;;;;;;53.92;28.27;;;;;;;;;;6224583;28;20044;-78
2023/10/11 08:45:00;;;;;;;51.20;30.08;;;;;;;;;;6237030;28;20045;-78
2023/10/11 08:48:03;;;;;;;46.42;26.48;;;;;;;;;;6228659;28;20054;-78
2023/10/11 08:51:10;;;;;;;44.88;24.83;;;;;;;;;;6228963;28;20113;-78
2023/10/11 08:54:16;;;;;;;46.28;27.58;;;;;;;;;;6226779;28;20054;-77
2023/10/11 08:57:23;;;;;;;48.58;29.17;;;;;;;;;;6227619;28;20057;-77
2023/10/11 09:00:33;;;;;;;47.72;28.38;;;;;;;;;;6220759;28;20062;-77
2023/10/11 09:03:39;;;;;;;45.80;27.77;;;;;;;;;;6229094;28;20057;-78
2023/10/11 09:06:44;;;;;;;47.08;26.15;;;;;;;;;;6227150;28;20049;-78
2023/10/11 09:09:50;;;;;;;39.22;23.27;;;;;;;;;;6227885;28;20057;-77
2023/10/11 09:12:56;;;;;;;43.47;26.38;;;;;;;;;;6227227;28;20049;-78
2023/10/11 09:15:57;;;;;;;40.97;23.85;;;;;;;;;;6228690;28;20038;-77
2023/10/11 09:19:05;;;;;;;35.35;22.17;;;;;;;;;;6224721;28;20993;-77
2023/10/11 09:22:18;;;;;;;38.55;22.17;;;;;;;;;;6222294;28;20358;-77
2023/10/11 09:25:22;;;;;;;34.30;19.55;;;;;;;;;;6228879;28;20358;-78
2023/10/11 09:28:25;;;;;;;27.42;16.15;;;;;;;;;;6220208;28;20109;-77
2023/10/11 09:31:27;;;;;;;27.52;14.48;;;;;;;;;;6230102;28;20116;-78
2023/10/11 09:34:29;;;;;;;24.35;14.00;;;;;;;;;;6253507;28;20072;-79
2023/10/11 09:37:33;;;;;;;24.63;13.23;;;;;;;;;;6252036;28;20126;-76
2023/10/11 09:40:36;;;;;;;26.00;13.77;;;;;;;;;;6249817;28;20057;-78
2023/10/11 09:43:42;;;;;;;21.42;13.68;;;;;;;;;;6253446;28;20120;-78
2023/10/11 09:46:45;;;;;;;32.78;16.65;;;;;;;;;;6251019;28;20237;-77
2023/10/11 09:49:53;;;;;;;23.13;13.80;;;;;;;;;;6253964;28;20045;-78
2023/10/11 09:52:57;;;;;;;28.52;16.38;;;;;;;;;;6250089;28;20045;-77
2023/10/11 09:56:02;;;;;;;25.63;13.45;;;;;;;;;;6245693;28;20383;-77
2023/10/11 09:59:23;;;;;;;22.80;16.08;;;;;;;;;;6244234;28;20207;-78
2023/10/11 10:02:31;;;;;;;26.70;16.20;;;;;;;;;;6225649;28;20384;-78
2023/10/11 10:06:06;;;;;;;30.15;17.27;;;;;;;;;;6224652;28;20408;-77
2023/10/11 10:09:26;;;;;;;32.47;18.05;;;;;;;;;;6231677;28;20056;-77
2023/10/11 10:12:33;;;;;;;24.83;14.75;;;;;;;;;;6225766;28;20057;-78
2023/10/11 10:15:47;;;;;;;24.13;15.57;;;;;;;;;;6226805;28;20052;-77
2023/10/11 10:19:26;;;;;;;25.85;15.88;;;;;;;;;;6217209;28;20117;-77
2023/10/11 10:22:31;;;;;;;22.95;15.80;;;;;;;;;;6223742;28;20093;-78
2023/10/11 10:25:34;;;;;;;30.27;15.55;;;;;;;;;;6226701;28;20058;-78
2023/10/11 10:28:52;;;;;;;27.30;15.60;;;;;;;;;;6224795;28;20069;-76
2023/10/11 10:32:07;;;;;;;39.78;18.45;;;;;;;;;;6223690;28;20061;-77
2023/10/11 10:35:36;;;;;;;33.95;17.38;;;;;;;;;;6243652;28;20144;-77
2023/10/11 10:39:36;;;;;;;30.38;17.65;;;;;;;;;;6247764;28;20126;-77
2023/10/11 10:42:31;;;;;;;24.40;16.65;;;;;;;;;;6246250;28;20068;-77
2023/10/11 10:45:33;;;;;;;30.92;16.45;;;;;;;;;;6249442;28;20053;-77
2023/10/11 10:48:40;;;;;;;37.42;22.00;;;;;;;;;;6253999;28;20100;-78
2023/10/11 10:51:47;;;;;;;33.28;21.20;;;;;;;;;;6254055;28;20092;-78
2023/10/11 10:55:02;;;;;;;35.15;19.25;;;;;;;;;;6251017;28;20386;-78
2023/10/11 10:58:04;;;;;;;37.08;19.65;;;;;;;;;;6250352;28;20045;-78
2023/10/11 11:01:06;;;;;;;34.47;20.20;;;;;;;;;;6229488;28;20053;-78
2023/10/11 11:04:09;;;;;;;32.70;21.20;;;;;;;;;;6226029;28;20483;-78
2023/10/11 11:07:22;;;;;;;32.13;18.67;;;;;;;;;;6223581;28;20081;-77
2023/10/11 11:10:24;;;;;;;32.50;19.23;;;;;;;;;;6228315;28;20122;-77
2023/10/11 11:13:29;;;;;;;38.33;21.40;;;;;;;;;;6232926;28;20290;-78
2023/10/11 11:16:30;;;;;;;47.90;21.90;;;;;;;;;;6228555;28;20330;-78
2023/10/11 11:19:34;;;;;;;36.05;23.67;;;;;;;;;;6241199;28;20066;-77
2023/10/11 11:22:38;;;;;;;43.92;24.67;;;;;;;;;;6239609;28;20050;-77
2023/10/11 11:25:39;;;;;;;37.53;21.73;;;;;;;;;;6255292;28;20274;-78
2023/10/11 11:28:45;;;;;;;41.33;25.10;;;;;;;;;;6255639;28;20057;-78
2023/10/11 11:31:52;;;;;;;42.72;26.08;;;;;;;;;;6252857;28;20041;-78
2023/10/11 11:35:00;;;;;;;38.20;25.63;;;;;;;;;;6252565;28;20065;-77
2023/10/11 11:38:05;;;;;;;37.38;23.20;;;;;;;;;;6225197;28;20049;-78
2023/10/11 11:41:15;;;;;;;39.92;23.30;;;;;;;;;;6228592;28;20056;-77
2023/10/11 11:44:21;;;;;;;36.42;22.08;;;;;;;;;;6230463;28;20367;-78
2023/10/11 11:47:23;;;;;;;39.45;19.40;;;;;;;;;;6229196;28;20234;-78
2023/10/11 11:50:24;;;;;;;35.53;22.13;;;;;;;;;;6231691;28;20207;-78
2023/10/11 11:53:25;;;;;;;31.10;19.15;;;;;;;;;;6227007;28;20435;-78
2023/10/11 11:56:27;;;;;;;29.70;18.97;;;;;;;;;;6225937;28;20060;-78
2023/10/11 11:59:30;;;;;;;30.52;20.85;;;;;;;;;;6228278;28;20104;-78
2023/10/11 12:02:31;;;;;;;30.67;21.80;;;;;;;;;;6229023;28;20274;-78
2023/10/11 12:05:37;;;;;;;32.80;19.83;;;;;;;;;;6226212;28;20057;-78
2023/10/11 12:08:38;;;;;;;36.47;20.33;;;;;;;;;;6228507;28;20089;-77
2023/10/11 12:11:45;;;;;;;33.30;18.50;;;;;;;;;;6229221;28;20128;-78
2023/10/11 12:14:49;;;;;;;33.20;21.58;;;;;;;;;;6226298;28;20050;-78
2023/10/11 12:17:53;;;;;;;28.65;19.95;;;;;;;;;;6225568;28;20103;-77
2023/10/11 12:20:54;;;;;;;36.67;21.95;;;;;;;;;;6228937;28;20125;-78
2023/10/11 12:23:56;;;;;;;35.05;20.05;;;;;;;;;;6230216;28;20388;-77
2023/10/11 12:26:59;;;;;;;28.33;19.80;;;;;;;;;;6231725;28;20049;-76
2023/10/11 12:30:02;;;;;;;35.60;19.42;;;;;;;;;;6222993;28;20042;-76
2023/10/11 12:33:06;;;;;;;33.42;19.73;;;;;;;;;;6221701;28;20379;-78
2023/10/11 12:36:08;;;;;;;35.80;23.38;;;;;;;;;;6223934;28;20240;-78
2023/10/11 12:39:20;;;;;;;29.88;20.52;;;;;;;;;;6227095;28;20058;-77
2023/10/11 12:42:22;;;;;;;39.37;22.57;;;;;;;;;;6232978;28;20049;-78
2023/10/11 12:45:26;;;;;;;36.03;22.05;;;;;;;;;;6222622;28;20389;-76
2023/10/11 12:48:27;;;;;;;33.13;20.67;;;;;;;;;;6227788;28;20113;-80
2023/10/11 12:51:29;;;;;;;34.72;19.92;;;;;;;;;;6227959;28;20559;-78
2023/10/11 12:54:31;;;;;;;36.80;23.02;;;;;;;;;;6223674;28;20068;-78
2023/10/11 12:57:33;;;;;;;32.63;20.77;;;;;;;;;;6235382;28;20057;-79
2023/10/11 13:00:37;;;;;;;37.90;22.00;;;;;;;;;;6225983;28;20112;-81
2023/10/11 13:03:39;;;;;;;33.45;21.58;;;;;;;;;;6225222;28;20046;-80
2023/10/11 13:06:47;;;;;;;40.70;22.80;;;;;;;;;;6228074;28;20058;-79
2023/10/11 13:09:48;;;;;;;37.83;21.85;;;;;;;;;;6226777;28;20634;-78
2023/10/11 13:12:53;;;;;;;32.22;19.13;;;;;;;;;;6221956;28;20054;-77
2023/10/11 13:15:59;;;;;;;31.90;20.10;;;;;;;;;;6222326;28;20364;-78
2023/10/11 13:19:01;;;;;;;31.90;17.48;;;;;;;;;;6232762;28;20050;-77
2023/10/11 13:22:09;;;;;;;37.27;20.53;;;;;;;;;;6238499;28;20053;-79
2023/10/11 13:25:22;;;;;;;29.90;21.60;;;;;;;;;;6235271;28;20492;-78
2023/10/11 13:28:26;;;;;;;;;;;;;;;;;;6230668;28;20101;-78
2023/10/11 13:31:29;;;;;;;29.08;19.40;;;;;;;;;;6223752;28;19925;-75
2023/10/11 13:34:33;;;;;;;26.83;16.80;;;;;;;;;;6232516;28;20076;-78
2023/10/11 13:37:35;;;;;;;32.92;19.65;;;;;;;;;;6232941;28;20064;-78
2023/10/11 13:40:37;;;;;;;29.93;18.33;;;;;;;;;;6227932;28;20108;-78
2023/10/11 13:43:39;;;;;;;27.25;18.90;;;;;;;;;;6226534;28;20487;-77
2023/10/11 13:46:43;;;;;;;35.45;19.70;;;;;;;;;;6227868;28;20060;-77
2023/10/11 13:49:47;;;;;;;36.90;22.05;;;;;;;;;;6218798;28;20122;-78
2023/10/11 13:52:51;;;;;;;28.45;18.27;;;;;;;;;;6228263;28;20053;-79
2023/10/11 13:55:53;;;;;;;32.90;20.67;;;;;;;;;;6233356;28;20054;-79
2023/10/11 13:58:55;;;;;;;34.97;23.02;;;;;;;;;;6247880;28;20045;-77
2023/10/11 14:02:02;;;;;;;63.63;44.57;;;;;;;;;;6234554;28;20245;-78
2023/10/11 14:05:14;;;;;;;136.13;102.57;;;;;;;;;;6221723;28;20057;-79
2023/10/11 14:08:24;;;;;;;35.63;22.80;;;;;;;;;;6221265;28;20050;-79
2023/10/11 14:11:26;;;;;;;29.88;20.38;;;;;;;;;;6220224;28;20077;-77
2023/10/11 14:14:39;;;;;;;34.67;18.23;;;;;;;;;;6222977;28;20130;-78
2023/10/11 14:17:43;;;;;;;34.97;22.80;;;;;;;;;;6234321;28;20077;-78
2023/10/11 14:20:49;;;;;;;32.05;20.10;;;;;;;;;;6228247;28;20050;-77
2023/10/11 14:23:51;;;;;;;36.38;24.33;;;;;;;;;;6235907;28;20100;-77
2023/10/11 14:26:53;;;;;;;40.75;20.42;;;;;;;;;;6222956;28;20058;-77
2023/10/11 14:29:55;;;;;;;38.30;21.03;;;;;;;;;;6226767;28;20049;-77
2023/10/11 14:32:58;;;;;;;35.00;20.67;;;;;;;;;;6240909;28;20456;-76
2023/10/11 14:35:59;;;;;;;29.60;21.13;;;;;;;;;;6253298;28;20457;-76
2023/10/11 14:39:08;;;;;;;29.00;18.27;;;;;;;;;;6255118;28;20053;-76
2023/10/11 14:42:10;;;;;;;28.15;17.98;;;;;;;;;;6255347;28;20146;-75
2023/10/11 14:45:13;;;;;;;45.65;24.10;;;;;;;;;;6256005;28;20057;-76
2023/10/11 14:48:17;;;;;;;36.03;22.80;;;;;;;;;;6251797;28;20120;-76
2023/10/11 14:51:19;;;;;;;32.15;17.52;;;;;;;;;;6255772;28;20144;-76
2023/10/11 14:54:21;;;;;;;36.10;23.90;;;;;;;;;;6253163;28;20109;-77
2023/10/11 14:57:23;;;;;;;30.60;18.83;;;;;;;;;;6258070;28;20052;-77
2023/10/11 15:00:25;;;;;;;;;;;;;;;;;;6253155;28;20056;-77
2023/10/11 15:03:28;;;;;;;26.98;16.17;;;;;;;;;;6250639;28;19968;-77
2023/10/11 15:06:29;;;;;;;28.85;17.48;;;;;;;;;;6248135;28;20107;-77
2023/10/11 15:09:33;;;;;;;34.80;19.35;;;;;;;;;;6252222;28;20057;-75
2023/10/11 15:12:34;;;;;;;30.27;19.30;;;;;;;;;;6251018;28;20057;-77
2023/10/11 15:15:36;;;;;;;46.07;23.80;;;;;;;;;;6249469;28;20318;-77
2023/10/11 15:18:39;;;;;;;35.83;25.30;;;;;;;;;;6234194;28;20485;-77
2023/10/11 15:21:41;;;;;;;35.15;24.13;;;;;;;;;;6231126;28;20083;-77
2023/10/11 15:24:42;;;;;;;27.65;18.05;;;;;;;;;;6224617;28;20141;-77
2023/10/11 15:27:44;;;;;;;34.50;18.87;;;;;;;;;;6225873;28;20049;-76
2023/10/11 15:30:47;;;;;;;35.97;21.37;;;;;;;;;;6234793;28;20062;-77
2023/10/11 15:33:50;;;;;;;35.38;23.88;;;;;;;;;;6224171;28;20081;-77
2023/10/11 15:36:52;;;;;;;42.38;21.25;;;;;;;;;;6227100;28;20068;-77
2023/10/11 15:39:54;;;;;;;28.75;20.73;;;;;;;;;;6226730;28;20089;-77
2023/10/11 15:42:57;;;;;;;38.50;26.05;;;;;;;;;;6224652;28;20049;-76
2023/10/11 15:46:00;;;;;;;41.88;25.67;;;;;;;;;;6226394;28;20283;-74
2023/10/11 15:49:05;;;;;;;118.13;90.07;;;;;;;;;;6229682;28;20159;-77
2023/10/11 15:52:09;;;;;;;165.93;106.20;;;;;;;;;;6228963;28;20262;-78
2023/10/11 15:55:11;;;;;;;42.42;28.77;;;;;;;;;;6232169;28;20058;-78
2023/10/11 15:58:16;;;;;;;43.78;24.10;;;;;;;;;;6228809;28;20054;-85
2023/10/11 16:01:17;;;;;;;39.78;22.98;;;;;;;;;;6224679;28;20046;-81
2023/10/11 16:04:22;;;;;;;45.55;24.77;;;;;;;;;;6225157;28;20084;-81
2023/10/11 16:07:25;;;;;;;43.90;24.92;;;;;;;;;;6225930;28;20053;-79
2023/10/11 16:10:26;;;;;;;49.08;27.45;;;;;;;;;;6225244;28;20097;-81
2023/10/11 16:13:28;;;;;;;38.42;25.58;;;;;;;;;;6219323;28;20053;-81
2023/10/11 16:16:36;;;;;;;37.15;25.33;;;;;;;;;;6223397;28;20281;-78
2023/10/11 16:19:39;;;;;;;45.72;28.35;;;;;;;;;;6221958;28;20061;-81
2023/10/11 16:22:42;;;;;;;46.65;27.88;;;;;;;;;;6221997;28;20073;-82
2023/10/11 16:25:45;;;;;;;42.38;25.10;;;;;;;;;;6224776;28;20062;-81
2023/10/11 16:28:47;;;;;;;44.38;27.35;;;;;;;;;;6223629;28;20042;-80
2023/10/11 16:31:49;;;;;;;45.67;29.40;;;;;;;;;;6216592;28;20073;-82
2023/10/11 16:34:52;;;;;;;45.95;26.13;;;;;;;;;;6223423;28;20054;-81
2023/10/11 16:37:54;;;;;;;46.80;26.70;;;;;;;;;;6220283;28;20318;-82
2023/10/11 16:40:56;;;;;;;51.47;29.98;;;;;;;;;;6224958;28;20054;-80
2023/10/11 16:43:58;;;;;;;48.85;28.10;;;;;;;;;;6225193;28;20054;-81
2023/10/11 16:47:05;;;;;;;45.08;26.23;;;;;;;;;;6228277;28;20082;-81
2023/10/11 16:50:11;;;;;;;46.83;29.25;;;;;;;;;;6229533;28;20045;-82
2023/10/11 16:53:13;;;;;;;41.97;26.63;;;;;;;;;;6227399;28;20073;-82
2023/10/11 16:56:16;;;;;;;46.47;28.52;;;;;;;;;;6224882;28;20369;-82
2023/10/11 16:59:17;;;;;;;44.75;28.52;;;;;;;;;;6241885;28;20056;-80
2023/10/11 17:02:20;;;;;;;42.00;28.33;;;;;;;;;;6232165;28;20095;-80
2023/10/11 17:05:23;;;;;;;49.83;29.03;;;;;;;;;;6240371;28;20041;-81
2023/10/11 17:08:26;;;;;;;53.72;28.35;;;;;;;;;;6247005;28;20495;-75
2023/10/11 17:11:29;;;;;;;52.97;30.48;;;;;;;;;;6240169;28;20138;-82
2023/10/11 17:14:31;;;;;;;46.63;27.55;;;;;;;;;;6232392;28;20245;-81
2023/10/11 17:17:33;;;;;;;49.38;28.63;;;;;;;;;;6238940;28;20042;-81
2023/10/11 17:20:37;;;;;;;46.40;28.45;;;;;;;;;;6231354;28;20057;-81
2023/10/11 17:23:40;;;;;;;46.67;28.58;;;;;;;;;;6243019;28;20085;-80
2023/10/11 17:26:42;;;;;;;46.10;30.83;;;;;;;;;;6242213;28;20288;-79
2023/10/11 17:29:46;;;;;;;51.40;31.52;;;;;;;;;;6241076;28;20049;-80
2023/10/11 17:32:49;;;;;;;48.67;30.42;;;;;;;;;;6231923;28;20046;-79
2023/10/11 17:35:52;;;;;;;50.22;30.83;;;;;;;;;;6239717;28;20066;-80
2023/10/11 17:38:53;;;;;;;;;;;;;;;;;;6232835;28;20042;-78
2023/10/11 17:41:55;;;;;;;43.85;28.17;;;;;;;;;;6242526;28;20110;-81
2023/10/11 17:45:00;;;;;;;43.65;27.92;;;;;;;;;;6232661;28;20266;-79
2023/10/11 17:48:03;;;;;;;44.50;27.48;;;;;;;;;;6241608;28;20113;-80
2023/10/11 17:51:06;;;;;;;50.42;27.95;;;;;;;;;;6234346;28;20330;-80
2023/10/11 17:54:08;;;;;;;46.03;29.17;;;;;;;;;;6247206;28;20053;-80
2023/10/11 17:57:09;;;;;;;48.20;30.13;;;;;;;;;;6242917;28;20054;-80
2023/10/11 18:00:18;;;;;;;53.33;31.63;;;;;;;;;;6247400;28;20050;-77
2023/10/11 18:03:20;;;;;;;50.03;31.27;;;;;;;;;;6239930;28;20191;-84
2023/10/11 18:06:23;;;;;;;61.80;35.93;;;;;;;;;;6243863;28;20111;-81
2023/10/11 18:09:25;;;;;;;;;;;;;;;;;;6225560;28;20060;-80
2023/10/11 18:12:26;;;;;;;53.05;33.05;;;;;;;;;;6225395;28;20106;-78
2023/10/11 18:15:32;;;;;;;51.85;31.85;;;;;;;;;;6225628;28;20056;-78
2023/10/11 18:18:34;;;;;;;48.90;30.17;;;;;;;;;;6222160;28;20046;-77
2023/10/11 18:21:37;;;;;;;48.93;31.30;;;;;;;;;;6225283;28;20069;-77